createdAt,value
2019-02-06T07:13:04.860Z,97904.86
2019-02-06T07:15:35.089Z,97906.01
2019-02-06T07:18:04.482Z,97904.56
2019-02-06T07:20:33.810Z,97901.06
2019-02-06T07:23:03.380Z,97900.36
2019-02-06T07:25:32.708Z,97906.54
2019-02-06T07:28:02.000Z,97907.65
2019-02-06T07:30:35.941Z,97909.17
2019-02-06T07:33:05.323Z,97910.13
2019-02-06T07:35:34.644Z,97903.52
2019-02-06T07:38:04.009Z,97905.27
2019-02-06T07:40:33.335Z,97906.86
2019-02-06T07:43:02.647Z,97901.01
2019-02-06T07:45:32.033Z,97909.48
2019-02-06T07:48:01.382Z,97897.87
2019-02-06T07:50:35.073Z,97900.02
2019-02-06T07:53:04.395Z,97899.63
2019-02-06T07:55:33.716Z,97901.45
2019-02-06T07:58:03.096Z,97900.28
2019-02-06T08:00:32.462Z,97895.20
2019-02-06T08:03:01.793Z,97894.41
2019-02-06T08:05:31.193Z,97903.05
2019-02-06T08:08:00.542Z,97899.44
2019-02-06T08:10:35.357Z,97899.13
2019-02-06T08:13:05.441Z,97899.97
2019-02-06T08:15:34.752Z,97893.14
2019-02-06T08:18:04.230Z,97894.08
2019-02-06T08:20:33.906Z,97884.13
2019-02-06T08:23:03.223Z,97886.13
2019-02-06T08:25:32.511Z,97885.23
2019-02-06T08:28:01.828Z,97884.92
2019-02-06T08:30:37.912Z,97883.28
2019-02-06T08:33:07.252Z,97878.07
2019-02-06T08:35:36.635Z,97883.51
2019-02-06T08:38:06.008Z,97878.73
2019-02-06T08:40:35.334Z,97877.10
2019-02-06T08:43:04.674Z,97879.72
2019-02-06T08:45:34.058Z,97875.22
2019-02-06T08:48:03.343Z,97864.20
2019-02-06T08:50:32.836Z,97865.59
2019-02-06T08:53:02.126Z,97868.95
2019-02-06T08:55:34.594Z,97861.78
2019-02-06T08:58:03.891Z,97863.80
2019-02-06T09:00:39.039Z,97860.78
2019-02-06T09:03:10.036Z,97862.46
2019-02-06T09:05:39.435Z,97857.05
2019-02-06T09:08:08.808Z,97855.91
2019-02-06T09:10:38.107Z,97850.97
2019-02-06T09:13:07.483Z,97848.16
2019-02-06T09:15:36.859Z,97847.70
2019-02-06T09:18:06.462Z,97836.46
2019-02-06T09:20:35.754Z,97836.50
2019-02-06T09:23:05.075Z,97830.91
2019-02-06T09:25:34.378Z,97837.05
2019-02-06T09:28:03.762Z,97835.69
2019-02-06T09:30:35.498Z,97840.97
2019-02-06T09:33:05.595Z,97834.25
2019-02-06T09:35:34.942Z,97834.48
2019-02-06T09:38:04.232Z,97830.33
2019-02-06T09:40:33.521Z,97827.05
2019-02-06T09:43:02.829Z,97836.11
2019-02-06T09:45:32.143Z,97839.84
2019-02-06T09:48:01.479Z,97830.98
2019-02-06T09:50:33.734Z,97831.59
2019-02-06T09:53:03.046Z,97828.95
2019-02-06T09:55:32.433Z,97829.89
2019-02-06T09:58:01.785Z,97827.70
2019-02-06T10:00:33.919Z,97827.33
2019-02-06T10:03:03.478Z,97824.80
2019-02-06T10:05:32.761Z,97822.12
2019-02-06T10:08:02.160Z,97826.33
2019-02-06T10:10:31.468Z,97819.14
2019-02-06T10:13:00.850Z,97820.73
2019-02-06T10:15:33.274Z,97820.83
2019-02-06T10:18:03.079Z,97818.14
2019-02-06T10:20:39.196Z,97820.65
2019-02-06T10:23:08.831Z,97813.30
2019-02-06T10:25:38.316Z,97810.67
2019-02-06T10:28:07.629Z,97808.11
2019-02-06T10:30:46.508Z,97805.31
2019-02-06T10:33:18.711Z,97801.93
2019-02-06T10:35:46.918Z,97795.65
2019-02-06T10:38:16.198Z,97790.61
2019-02-06T10:40:45.519Z,97791.56
2019-02-06T10:43:14.832Z,97791.48
2019-02-06T10:45:44.150Z,97793.09
2019-02-06T10:48:13.481Z,97790.50
2019-02-06T10:50:46.838Z,97787.80
2019-02-06T10:53:16.124Z,97784.91
2019-02-06T10:55:45.458Z,97783.36
2019-02-06T10:58:14.778Z,97780.27
2019-02-06T11:00:53.776Z,97781.95
2019-02-06T11:03:23.079Z,97777.41
2019-02-06T11:05:52.366Z,97769.23
2019-02-06T11:08:21.686Z,97770.94
2019-02-06T11:10:51.038Z,97765.03
2019-02-06T11:13:20.661Z,97758.73
2019-02-06T11:15:50.031Z,97756.20
2019-02-06T11:18:19.332Z,97756.19
2019-02-06T11:20:49.022Z,97746.68
2019-02-06T11:23:18.316Z,97750.03
2019-02-06T11:25:47.598Z,97745.73
2019-02-06T11:28:17.120Z,97739.10
2019-02-06T11:30:46.421Z,97734.12
2019-02-06T11:33:15.775Z,97734.63
2019-02-06T11:35:45.085Z,97735.14
2019-02-06T11:38:14.441Z,97728.38
2019-02-06T11:40:43.726Z,97731.47
2019-02-06T11:43:13.282Z,97728.20
2019-02-06T11:45:42.639Z,97724.26
2019-02-06T11:48:12.094Z,97720.06
2019-02-06T11:50:42.465Z,97715.88
2019-02-06T11:53:15.190Z,97705.36
2019-02-06T11:55:44.542Z,97710.89
2019-02-06T11:58:13.832Z,97704.51
2019-02-06T12:00:42.919Z,97699.80
2019-02-06T12:03:12.273Z,97695.82
2019-02-06T12:05:41.588Z,97693.37
2019-02-06T12:08:12.640Z,97691.39
2019-02-06T12:10:42.246Z,97680.23
2019-02-06T12:13:11.702Z,97681.12
2019-02-06T12:15:40.990Z,97683.13
2019-02-06T12:18:10.705Z,97679.39
2019-02-06T12:20:40.050Z,97670.59
2019-02-06T12:23:09.353Z,97670.97
2019-02-06T12:25:38.669Z,97669.03
2019-02-06T12:28:08.231Z,97663.89
2019-02-06T12:30:40.837Z,97662.31
2019-02-06T12:33:10.191Z,97656.98
2019-02-06T12:35:39.502Z,97655.70
2019-02-06T12:38:08.790Z,97647.29
2019-02-06T12:40:38.108Z,97646.89
2019-02-06T12:43:10.533Z,97643.22
2019-02-06T12:45:39.243Z,97636.19
2019-02-06T12:48:08.909Z,97629.21
2019-02-06T12:50:38.222Z,97629.55
2019-02-06T12:53:07.551Z,97631.53
2019-02-06T12:55:41.717Z,97621.28
2019-02-06T12:58:11.171Z,97625.80
2019-02-06T13:00:43.809Z,97619.36
2019-02-06T13:03:13.093Z,97621.17
2019-02-06T13:05:42.373Z,97617.53
2019-02-06T13:08:11.678Z,97612.33
2019-02-06T13:10:41.080Z,97611.00
2019-02-06T13:13:10.471Z,97609.59
2019-02-06T13:15:39.747Z,97609.16
2019-02-06T13:18:09.066Z,97610.28
2019-02-06T13:20:38.357Z,97603.48
2019-02-06T13:23:07.671Z,97604.22
2019-02-06T13:25:36.953Z,97605.53
2019-02-06T13:28:06.443Z,97607.80
2019-02-06T13:30:39.108Z,97606.27
2019-02-06T13:33:11.577Z,97601.30
2019-02-06T13:35:39.997Z,97602.70
2019-02-06T13:38:09.294Z,97602.23
2019-02-06T13:40:45.848Z,97598.42
2019-02-06T13:43:09.689Z,97597.73
2019-02-06T13:45:48.216Z,97601.52
2019-02-06T13:48:17.573Z,97599.28
2019-02-06T13:50:46.894Z,97598.49
2019-02-06T13:53:16.234Z,97595.77
2019-02-06T13:55:45.635Z,97591.73
2019-02-06T13:58:20.298Z,97585.71
2019-02-06T14:00:46.104Z,97583.04
2019-02-06T14:03:15.418Z,97581.38
2019-02-06T14:05:46.936Z,97586.11
2019-02-06T14:08:16.492Z,97581.16
2019-02-06T14:10:59.890Z,97578.55
2019-02-06T14:13:17.269Z,97577.52
2019-02-06T14:15:48.695Z,97577.52
2019-02-06T14:19:05.598Z,97581.94
2019-02-06T14:21:34.903Z,97585.73
2019-02-06T14:24:26.616Z,97581.59
2019-02-06T14:27:00.789Z,97584.58
2019-02-06T14:30:09.390Z,97588.48
2019-02-06T14:33:00.239Z,97592.50
2019-02-06T14:35:55.314Z,97591.47
2019-02-06T14:38:44.068Z,97593.57
2019-02-06T14:41:32.999Z,97593.48
2019-02-06T14:44:26.619Z,97593.86
2019-02-06T14:47:12.227Z,97595.95
2019-02-06T14:50:04.155Z,97591.33
2019-02-06T14:52:50.165Z,97592.97
2019-02-06T14:55:52.834Z,97600.40
2019-02-06T14:58:38.568Z,97600.24
2019-02-06T15:01:32.005Z,97602.03
2019-02-06T15:04:29.490Z,97609.26
2019-02-06T15:07:14.941Z,97607.67
2019-02-06T15:10:18.976Z,97608.13
2019-02-06T15:13:07.975Z,97614.16
2019-02-06T15:15:56.146Z,97620.50
2019-02-06T15:18:57.316Z,97621.14
2019-02-06T15:21:55.032Z,97613.76
2019-02-06T15:24:34.593Z,97622.09
2019-02-06T15:27:26.505Z,97621.34
2019-02-06T15:30:03.760Z,97619.02
2019-02-06T15:32:40.592Z,97619.73
2019-02-06T15:35:17.502Z,97626.26
2019-02-06T15:38:00.224Z,97630.10
2019-02-06T15:40:56.540Z,97633.61
2019-02-06T15:43:57.156Z,97636.25
2019-02-06T15:46:33.880Z,97636.91
2019-02-06T15:49:25.867Z,97632.18
2019-02-06T15:52:25.198Z,97637.50
2019-02-06T15:55:22.714Z,97639.03
2019-02-06T15:58:13.091Z,97640.55
2019-02-06T16:01:02.091Z,97647.27
2019-02-06T16:03:37.926Z,97645.69
2019-02-06T16:06:27.418Z,97643.45
2019-02-06T16:09:20.764Z,97647.92
2019-02-06T16:12:18.788Z,97655.41
2019-02-06T16:14:58.566Z,97652.68
2019-02-06T16:17:38.256Z,97652.69
2019-02-06T16:20:37.734Z,97653.98
2019-02-06T16:23:38.490Z,97652.22
2019-02-06T16:26:48.626Z,97651.97
2019-02-06T16:30:00.642Z,97656.38
2019-02-06T16:33:04.427Z,97658.84
2019-02-06T16:36:10.140Z,97662.22
2019-02-06T16:39:02.158Z,97653.91
2019-02-06T16:42:02.448Z,97658.34
2019-02-06T16:44:42.478Z,97665.36
2019-02-06T16:47:28.178Z,97671.52
2019-02-06T16:50:08.095Z,97673.27
2019-02-06T16:53:08.660Z,97672.31
2019-02-06T16:56:09.654Z,97674.58
2019-02-06T16:59:23.527Z,97676.00
2019-02-06T17:02:19.918Z,97681.73
2019-02-06T17:05:14.610Z,97682.97
2019-02-06T17:08:07.847Z,97684.39
2019-02-06T17:11:03.977Z,97688.88
2019-02-06T17:14:08.772Z,97683.20
2019-02-06T17:17:03.504Z,97683.47
2019-02-06T17:19:46.529Z,97687.19
2019-02-06T17:22:26.458Z,97688.73
2019-02-06T17:25:24.403Z,97688.62
2019-02-06T17:28:13.487Z,97696.70
2019-02-06T17:31:19.451Z,97697.62
2019-02-06T17:34:11.642Z,97694.08
2019-02-06T17:36:51.516Z,97696.52
2019-02-06T17:39:45.323Z,97700.30
2019-02-06T17:42:52.695Z,97703.88
2019-02-06T17:45:48.157Z,97718.12
2019-02-06T17:48:30.937Z,97710.64
2019-02-06T17:51:33.355Z,97717.22
2019-02-06T17:54:13.369Z,97725.83
2019-02-06T17:56:42.681Z,97722.49
2019-02-06T17:59:11.971Z,97724.05
2019-02-06T18:01:41.286Z,97722.52
2019-02-06T18:04:10.650Z,97725.84
2019-02-06T18:06:40.010Z,97725.71
2019-02-06T18:09:12.950Z,97722.61
2019-02-06T18:11:42.339Z,97723.73
2019-02-06T18:14:11.658Z,97727.99
2019-02-06T18:16:41.049Z,97731.99
2019-02-06T18:19:10.337Z,97727.86
2019-02-06T18:21:39.659Z,97728.09
2019-02-06T18:24:09.435Z,97731.67
2019-02-06T18:26:42.052Z,97727.64
2019-02-06T18:29:11.375Z,97734.66
2019-02-06T18:31:40.734Z,97728.69
2019-02-06T18:34:10.263Z,97732.73
2019-02-06T18:36:39.617Z,97730.33
2019-02-06T18:39:10.834Z,97724.97
2019-02-06T18:41:40.478Z,97733.94
2019-02-06T18:44:09.930Z,97728.23
2019-02-06T18:46:39.424Z,97728.55
2019-02-06T18:49:08.818Z,97725.23
2019-02-06T18:51:38.112Z,97722.48
2019-02-06T18:54:07.635Z,97730.86
2019-02-06T18:56:36.925Z,97731.59
2019-02-06T18:59:06.831Z,97725.53
2019-02-06T19:01:36.127Z,97720.39
2019-02-06T19:04:06.196Z,97721.51
2019-02-06T19:06:35.600Z,97726.28
2019-02-06T19:09:07.990Z,97721.48
2019-02-06T19:11:37.285Z,97717.62
2019-02-06T19:14:06.849Z,97714.80
2019-02-06T19:16:36.446Z,97713.23
2019-02-06T19:19:05.817Z,97718.61
2019-02-06T19:21:35.185Z,97716.93
2019-02-06T19:24:04.684Z,97710.94
2019-02-06T19:26:33.982Z,97708.77
2019-02-06T19:29:03.384Z,97712.22
2019-02-06T19:31:32.823Z,97717.58
2019-02-06T19:34:02.665Z,97718.73
2019-02-06T19:36:31.994Z,97716.63
2019-02-06T19:39:01.392Z,97712.39
2019-02-06T19:41:30.692Z,97713.48
2019-02-06T19:44:00.847Z,97719.30
2019-02-06T19:46:30.186Z,97707.08
2019-02-06T19:48:59.548Z,97718.06
2019-02-06T19:51:29.146Z,97706.70
2019-02-06T19:53:58.446Z,97708.73
2019-02-06T19:56:27.780Z,97704.83
2019-02-06T19:58:57.077Z,97698.58
2019-02-06T20:01:26.404Z,97698.36
2019-02-06T20:03:55.700Z,97695.49
2019-02-06T20:06:30.817Z,97695.50
2019-02-06T20:09:00.252Z,97698.48
2019-02-06T20:11:29.652Z,97691.21
2019-02-06T20:13:58.968Z,97691.80
2019-02-06T20:16:28.260Z,97692.07
2019-02-06T20:18:57.588Z,97693.73
2019-02-06T20:21:26.957Z,97693.61
2019-02-06T20:23:56.282Z,97690.82
2019-02-06T20:26:25.577Z,97685.50
2019-02-06T20:28:54.978Z,97684.38
2019-02-06T20:31:24.350Z,97681.83
2019-02-06T20:33:53.678Z,97679.22
2019-02-06T20:36:23.047Z,97680.56
2019-02-06T20:38:52.371Z,97683.30
2019-02-06T20:41:22.148Z,97682.60
2019-02-06T20:43:51.473Z,97669.86
2019-02-06T20:46:20.800Z,97677.75
2019-02-06T20:48:50.098Z,97672.89
2019-02-06T20:51:19.600Z,97663.22
2019-02-06T20:53:48.959Z,97671.70
2019-02-06T20:56:18.285Z,97666.58
2019-02-06T20:58:48.063Z,97668.97
2019-02-06T21:01:17.382Z,97661.13
2019-02-06T21:03:46.705Z,97655.77
2019-02-06T21:06:16.075Z,97662.98
2019-02-06T21:08:45.401Z,97657.95
2019-02-06T21:11:14.868Z,97655.48
2019-02-06T21:13:44.175Z,97655.43
2019-02-06T21:16:13.495Z,97657.41
2019-02-06T21:18:42.860Z,97661.16
2019-02-06T21:21:12.182Z,97651.70
2019-02-06T21:23:41.485Z,97646.43
2019-02-06T21:26:10.809Z,97649.77
2019-02-06T21:28:40.246Z,97646.83
2019-02-06T21:31:09.676Z,97641.38
2019-02-06T21:33:38.977Z,97632.73
2019-02-06T21:36:08.311Z,97628.80
2019-02-06T21:38:37.610Z,97624.95
2019-02-06T21:41:06.980Z,97624.32
2019-02-06T21:43:43.880Z,97619.64
2019-02-06T21:46:07.473Z,97622.55
2019-02-06T21:48:36.940Z,97615.41
2019-02-06T21:51:06.306Z,97620.06
2019-02-06T21:53:35.635Z,97616.44
2019-02-06T21:56:05.000Z,97610.56
2019-02-06T21:58:34.457Z,97617.25
2019-02-06T22:01:03.829Z,97618.75
2019-02-06T22:03:33.225Z,97609.52
2019-02-06T22:06:02.526Z,97611.38
2019-02-06T22:08:31.824Z,97611.69
2019-02-06T22:11:01.151Z,97611.00
2019-02-06T22:13:30.453Z,97604.64
2019-02-06T22:15:59.846Z,97599.11
2019-02-06T22:18:29.174Z,97605.62
2019-02-06T22:20:58.844Z,97598.95
2019-02-06T22:23:28.172Z,97599.10
2019-02-06T22:25:57.499Z,97601.09
2019-02-06T22:28:26.868Z,97596.89
2019-02-06T22:30:56.260Z,97603.01
2019-02-06T22:33:25.652Z,97593.16
2019-02-06T22:35:54.980Z,97591.58
2019-02-06T22:38:24.374Z,97602.24
2019-02-06T22:40:53.665Z,97603.11
2019-02-06T22:43:23.131Z,97597.78
2019-02-06T22:45:52.457Z,97596.89
2019-02-06T22:48:21.757Z,97588.74
2019-02-06T22:50:51.156Z,97595.27
2019-02-06T22:53:20.536Z,97591.39
2019-02-06T22:55:49.908Z,97594.27
2019-02-06T22:58:19.229Z,97590.28
2019-02-06T23:00:55.074Z,97590.66
2019-02-06T23:03:29.256Z,97571.91
2019-02-06T23:05:58.633Z,97566.55
2019-02-06T23:08:27.962Z,97573.11
2019-02-06T23:10:57.668Z,97562.22
2019-02-06T23:13:26.967Z,97557.17
2019-02-06T23:15:56.294Z,97559.27
2019-02-06T23:18:25.690Z,97566.92
2019-02-06T23:20:55.057Z,97557.94
2019-02-06T23:23:24.500Z,97552.41
2019-02-06T23:25:54.173Z,97552.24
2019-02-06T23:28:23.498Z,97544.88
2019-02-06T23:30:52.869Z,97553.11
2019-02-06T23:33:22.203Z,97540.98
2019-02-06T23:35:51.505Z,97541.12
2019-02-06T23:38:20.831Z,97533.59
2019-02-06T23:40:50.505Z,97534.91
2019-02-06T23:43:19.877Z,97539.13
2019-02-06T23:45:49.204Z,97529.61
2019-02-06T23:48:18.568Z,97535.75
2019-02-06T23:50:47.865Z,97533.52
2019-02-06T23:53:17.258Z,97536.45
2019-02-06T23:55:46.909Z,97532.59
2019-02-06T23:58:16.233Z,97530.30
